Time;durP1;ratioP1;P1;durP2;ratioP2;P2;SDS_P1;SDS_P2;PMS_P1;PMS_P2;Temp;Humidity;BMP_temperature;BMP_pressure;BME280_temperature;BME280_humidity;BME280_pressure;Samples;Min_cycle;Max_cycle;Signal;HPM_P1;HPM_P2
2021/01/30 00:00:39;;;;;;;2.72;2.47;;;10.00;99.90;;;;;;4973847;28;20207;-44
2021/01/30 00:03:12;;;;;;;2.65;2.45;;;10.00;99.90;;;;;;4981364;28;20194;-44
2021/01/30 00:05:44;;;;;;;2.83;2.60;;;9.80;99.90;;;;;;4983266;28;20240;-49
2021/01/30 00:08:16;;;;;;;4.80;3.20;;;9.70;99.90;;;;;;4981176;28;20228;-46
2021/01/30 00:10:46;;;;;;;4.20;3.22;;;9.60;99.90;;;;;;4983451;28;20237;-45
2021/01/30 00:13:18;;;;;;;3.50;2.60;;;9.40;99.90;;;;;;4985775;28;20237;-47
2021/01/30 00:15:48;;;;;;;3.45;3.00;;;9.40;99.90;;;;;;4980131;28;20196;-45
2021/01/30 00:18:18;;;;;;;3.10;2.90;;;9.40;99.90;;;;;;4990423;28;20201;-47
2021/01/30 00:20:49;;;;;;;3.70;3.40;;;9.40;99.90;;;;;;4981886;28;20352;-46
2021/01/30 00:23:19;;;;;;;3.13;2.80;;;9.50;99.90;;;;;;4978947;28;20228;-44
2021/01/30 00:25:49;;;;;;;3.25;2.95;;;9.40;99.90;;;;;;4984601;28;20217;-45
2021/01/30 00:28:19;;;;;;;4.50;2.92;;;9.40;99.90;;;;;;4976217;28;20328;-45
2021/01/30 00:30:49;;;;;;;4.03;3.13;;;9.30;99.90;;;;;;4973258;28;20264;-46
2021/01/30 00:33:20;;;;;;;3.50;3.17;;;9.30;99.90;;;;;;4983373;28;20204;-46
2021/01/30 00:35:51;;;;;;;3.53;3.22;;;9.30;99.90;;;;;;4981341;28;20210;-45
2021/01/30 00:38:21;;;;;;;4.35;3.22;;;9.30;99.90;;;;;;4969869;28;20213;-49
2021/01/30 00:40:51;;;;;;;4.00;3.45;;;9.30;99.90;;;;;;4969062;28;21042;-46
2021/01/30 00:43:21;;;;;;;4.00;3.60;;;9.30;99.90;;;;;;4973148;28;20256;-47
2021/01/30 00:45:51;;;;;;;3.60;3.25;;;9.40;99.90;;;;;;4982573;28;20205;-48
2021/01/30 00:48:22;;;;;;;3.70;3.40;;;9.30;99.90;;;;;;4967917;28;20229;-46
2021/01/30 00:50:53;;;;;;;5.22;3.60;;;9.30;99.90;;;;;;4965099;28;20244;-45
2021/01/30 00:53:23;;;;;;;5.35;4.20;;;9.30;99.90;;;;;;4973367;28;20236;-47
2021/01/30 00:55:53;;;;;;;5.40;4.63;;;9.30;99.90;;;;;;4964536;28;20209;-44
2021/01/30 00:58:23;;;;;;;4.55;4.15;;;9.30;99.90;;;;;;4965274;28;20198;-44
2021/01/30 01:00:53;;;;;;;4.47;4.07;;;9.30;99.90;;;;;;4974693;28;20303;-47
2021/01/30 01:03:23;;;;;;;4.45;3.80;;;9.20;99.90;;;;;;4964535;28;20643;-47
2021/01/30 01:05:54;;;;;;;3.30;3.00;;;9.10;99.90;;;;;;4966818;28;20227;-46
2021/01/30 01:08:25;;;;;;;4.10;3.72;;;9.00;99.90;;;;;;4976359;28;20291;-47
2021/01/30 01:10:55;;;;;;;4.45;4.05;;;9.00;99.90;;;;;;4980156;28;20741;-45
2021/01/30 01:14:03;;;;;;;4.55;4.05;;;8.80;99.90;;;;;;4968325;28;20253;-47
2021/01/30 01:16:34;;;;;;;5.03;4.57;;;8.80;99.90;;;;;;4976389;28;20277;-46
2021/01/30 01:19:05;;;;;;;4.93;4.18;;;8.80;99.90;;;;;;4974083;28;20215;-48
2021/01/30 01:21:37;;;;;;;5.38;4.38;;;8.80;99.90;;;;;;4946626;28;20197;-45
2021/01/30 01:24:08;;;;;;;4.70;4.30;;;8.80;99.90;;;;;;4969178;28;20209;-48
2021/01/30 01:26:38;;;;;;;5.45;4.47;;;8.70;99.90;;;;;;4982661;28;20236;-48
2021/01/30 01:29:08;;;;;;;4.35;3.95;;;8.70;99.90;;;;;;4971621;28;20261;-46
2021/01/30 01:31:38;;;;;;;7.07;5.43;;;8.70;99.90;;;;;;4982453;28;20206;-44
2021/01/30 01:34:08;;;;;;;5.20;4.30;;;8.70;99.90;;;;;;4968115;28;20300;-47
2021/01/30 01:36:39;;;;;;;5.07;4.28;;;8.70;99.90;;;;;;4970448;28;20227;-46
2021/01/30 01:39:09;;;;;;;5.93;4.40;;;8.70;99.90;;;;;;4983653;28;20228;-45
2021/01/30 01:41:39;;;;;;;6.30;5.15;;;8.70;99.90;;;;;;4982084;28;20209;-47
2021/01/30 01:44:09;;;;;;;5.32;4.63;;;8.70;99.90;;;;;;4983756;28;20646;-50
2021/01/30 01:46:41;;;;;;;4.85;4.45;;;8.70;99.90;;;;;;4981512;28;20232;-47
2021/01/30 01:49:17;;;;;;;5.30;4.90;;;8.70;99.90;;;;;;4983181;28;20200;-46
2021/01/30 01:51:55;;;;;;;4.90;4.40;;;8.80;99.90;;;;;;4975230;28;20201;-47
2021/01/30 01:54:27;;;;;;;5.38;4.88;;;8.80;99.90;;;;;;4978653;28;20244;-45
2021/01/30 01:57:04;;;;;;;5.53;5.03;;;8.70;99.90;;;;;;4974570;28;20284;-50
2021/01/30 01:59:34;;;;;;;7.75;5.72;;;8.70;99.90;;;;;;4964572;28;20212;-44
2021/01/30 02:02:04;;;;;;;6.20;5.47;;;8.70;99.90;;;;;;4963842;28;20201;-50
2021/01/30 02:04:35;;;;;;;6.20;5.63;;;8.70;99.90;;;;;;4964422;28;20247;-46
2021/01/30 02:07:06;;;;;;;5.68;5.03;;;8.60;99.90;;;;;;4975646;28;20252;-50
2021/01/30 02:09:36;;;;;;;4.82;4.43;;;8.70;99.90;;;;;;4983400;28;20204;-48
2021/01/30 02:12:11;;;;;;;6.20;5.60;;;8.70;99.90;;;;;;4970326;28;20240;-48
2021/01/30 02:14:45;;;;;;;5.70;5.10;;;8.70;99.90;;;;;;4977967;28;20306;-47
2021/01/30 02:17:31;;;;;;;5.43;4.85;;;8.70;99.90;;;;;;4979005;28;20205;-47
2021/01/30 02:21:02;;;;;;;5.15;4.72;;;8.70;99.90;;;;;;4983794;28;20207;-46
2021/01/30 02:24:11;;;;;;;5.80;5.13;;;8.70;99.90;;;;;;4982500;28;20228;-49
2021/01/30 02:27:13;;;;;;;5.93;5.18;;;8.80;99.90;;;;;;4967256;28;20363;-41
2021/01/30 02:30:05;;;;;;;4.45;4.05;;;8.80;99.90;;;;;;4964246;28;20576;-41
2021/01/30 02:32:54;;;;;;;4.63;4.22;;;8.70;99.90;;;;;;4963873;28;20201;-47
2021/01/30 02:35:34;;;;;;;5.20;4.80;;;8.80;99.90;;;;;;4968152;28;20193;-49
2021/01/30 02:38:08;;;;;;;4.97;4.50;;;8.70;99.90;;;;;;4981848;28;20208;-47
2021/01/30 02:40:43;;;;;;;5.70;5.20;;;8.70;99.90;;;;;;4984741;28;20204;-48
2021/01/30 02:43:16;;;;;;;4.78;4.38;;;8.70;99.90;;;;;;4982871;28;20311;-49
2021/01/30 02:45:50;;;;;;;4.32;3.97;;;8.80;99.90;;;;;;4983836;28;20272;-48
2021/01/30 02:48:23;;;;;;;4.80;4.40;;;8.70;99.90;;;;;;4976980;28;20232;-46
2021/01/30 02:50:59;;;;;;;4.00;3.70;;;8.70;99.90;;;;;;4986285;28;20252;-46
2021/01/30 02:53:33;;;;;;;4.07;3.35;;;8.80;99.90;;;;;;4974274;28;20250;-49
2021/01/30 02:56:04;;;;;;;4.30;3.90;;;8.90;99.90;;;;;;4979667;28;20205;-46
2021/01/30 02:58:38;;;;;;;4.68;3.75;;;8.80;99.90;;;;;;4967128;28;20224;-44
2021/01/30 03:01:08;;;;;;;4.38;4.00;;;8.70;99.90;;;;;;4966955;28;20260;-45
2021/01/30 03:03:39;;;;;;;4.18;3.10;;;8.60;99.90;;;;;;4966454;28;20209;-49
2021/01/30 03:06:16;;;;;;;4.50;4.18;;;8.70;99.90;;;;;;4986241;28;20689;-47
2021/01/30 03:08:56;;;;;;;4.00;3.70;;;8.70;99.90;;;;;;4976485;28;20255;-48
2021/01/30 03:11:31;;;;;;;3.80;3.50;;;8.80;99.90;;;;;;4970870;28;20212;-47
2021/01/30 03:14:08;;;;;;;6.10;5.50;;;8.70;99.90;;;;;;4968505;28;20205;-46
2021/01/30 03:16:40;;;;;;;4.43;3.60;;;8.80;99.90;;;;;;4983510;28;20205;-43
2021/01/30 03:19:17;;;;;;;3.58;3.28;;;8.70;99.90;;;;;;4977287;28;20209;-47
2021/01/30 03:21:49;;;;;;;3.90;3.60;;;8.70;99.90;;;;;;4969181;28;20271;-48
2021/01/30 03:24:20;;;;;;;3.70;3.40;;;8.70;99.90;;;;;;4967537;28;20232;-44
2021/01/30 03:26:50;;;;;;;4.22;3.90;;;8.60;99.90;;;;;;4965606;28;20639;-47
2021/01/30 03:29:21;;;;;;;5.07;4.07;;;8.60;99.90;;;;;;4982294;28;20197;-49
2021/01/30 03:31:51;;;;;;;3.50;2.80;;;8.60;99.90;;;;;;4984434;28;20209;-45
2021/01/30 03:34:22;;;;;;;2.50;2.00;;;8.50;99.90;;;;;;4985002;28;20201;-46
2021/01/30 03:36:52;;;;;;;2.00;1.80;;;8.30;99.90;;;;;;4983864;28;20309;-44
2021/01/30 03:39:23;;;;;;;1.85;1.73;;;8.10;99.90;;;;;;4983138;28;20200;-49
2021/01/30 03:41:54;;;;;;;1.75;1.65;;;8.00;99.90;;;;;;4971115;28;20292;-47
2021/01/30 03:44:24;;;;;;;1.98;1.88;;;8.00;99.90;;;;;;4985328;28;20216;-41
2021/01/30 03:46:55;;;;;;;3.05;2.25;;;7.90;99.90;;;;;;4975437;28;20305;-41
2021/01/30 03:49:26;;;;;;;2.10;1.90;;;7.90;99.90;;;;;;4983767;28;20223;-46
2021/01/30 03:51:56;;;;;;;2.30;2.10;;;7.90;99.90;;;;;;4978950;28;20209;-47
2021/01/30 03:54:27;;;;;;;2.33;2.13;;;7.90;99.90;;;;;;4979115;28;20200;-45
2021/01/30 03:56:57;;;;;;;2.72;2.53;;;7.80;99.90;;;;;;4967833;28;20212;-42
2021/01/30 03:59:27;;;;;;;3.00;2.40;;;7.80;99.90;;;;;;4966060;28;20202;-49
2021/01/30 04:01:57;;;;;;;6.30;3.92;;;7.90;99.90;;;;;;4987667;28;20205;-49
2021/01/30 04:04:28;;;;;;;3.65;3.33;;;7.80;99.90;;;;;;4979239;28;20208;-44
2021/01/30 04:06:58;;;;;;;3.50;3.20;;;7.80;99.90;;;;;;4973026;28;20205;-47
2021/01/30 04:09:30;;;;;;;3.78;3.55;;;7.80;99.90;;;;;;4983628;28;20255;-45
2021/01/30 04:12:00;;;;;;;5.32;4.93;;;7.80;99.90;;;;;;4982232;28;20390;-43
2021/01/30 04:14:31;;;;;;;3.45;3.15;;;7.80;99.90;;;;;;4981724;28;20208;-44
2021/01/30 04:17:01;;;;;;;5.45;4.95;;;7.80;99.90;;;;;;4973182;28;20284;-41
2021/01/30 04:19:31;;;;;;;3.25;2.95;;;7.70;99.90;;;;;;4965862;28;20550;-41
2021/01/30 04:22:02;;;;;;;4.65;3.60;;;7.50;99.90;;;;;;4966178;28;20216;-41
2021/01/30 04:24:33;;;;;;;2.40;2.00;;;7.40;99.90;;;;;;4966852;28;20603;-41
2021/01/30 04:27:03;;;;;;;2.53;2.33;;;7.30;99.90;;;;;;4967302;28;20201;-43
2021/01/30 04:29:33;;;;;;;2.17;1.67;;;7.20;99.90;;;;;;4977699;28;20204;-46
2021/01/30 04:32:03;;;;;;;4.35;1.67;;;7.20;99.90;;;;;;4974771;28;20213;-46
2021/01/30 04:34:33;;;;;;;37.05;6.20;;;7.20;99.90;;;;;;4975638;28;20203;-45
2021/01/30 04:37:04;;;;;;;2.55;1.90;;;7.20;99.90;;;;;;4985596;28;20248;-41
2021/01/30 04:39:37;;;;;;;1.67;1.58;;;7.20;99.90;;;;;;4984661;28;20201;-42
2021/01/30 04:42:13;;;;;;;2.03;1.77;;;7.20;99.90;;;;;;4983679;28;20216;-43
2021/01/30 04:44:51;;;;;;;2.15;1.65;;;7.20;99.90;;;;;;4984531;28;20201;-44
2021/01/30 04:47:33;;;;;;;1.50;1.35;;;7.20;99.90;;;;;;4978171;28;20228;-43
2021/01/30 04:50:12;;;;;;;2.00;1.50;;;7.10;99.90;;;;;;4972529;28;20218;-41
2021/01/30 04:52:50;;;;;;;1.98;1.67;;;7.10;99.90;;;;;;4976021;28;20268;-37
2021/01/30 04:55:36;;;;;;;1.90;1.70;;;7.00;99.90;;;;;;4981989;28;20223;-41
2021/01/30 04:58:15;;;;;;;1.38;1.27;;;7.00;99.90;;;;;;4987367;28;20505;-40
2021/01/30 05:00:56;;;;;;;2.10;1.52;;;7.00;99.90;;;;;;4982353;28;20205;-43
2021/01/30 05:03:59;;;;;;;1.70;1.60;;;7.00;99.90;;;;;;4972500;28;20284;-43
2021/01/30 05:06:48;;;;;;;1.63;1.50;;;7.10;99.90;;;;;;4978463;28;20267;-42
2021/01/30 05:09:24;;;;;;;1.50;1.38;;;7.10;99.90;;;;;;4973429;28;20213;-41
2021/01/30 05:12:06;;;;;;;15.48;13.95;;;7.10;99.90;;;;;;4978331;28;20633;-41
2021/01/30 05:14:47;;;;;;;12.02;9.35;;;7.10;99.90;;;;;;4976199;28;20214;-40
2021/01/30 05:17:22;;;;;;;4.82;4.32;;;7.10;99.90;;;;;;4979311;28;20235;-41
2021/01/30 05:19:59;;;;;;;3.97;3.67;;;7.10;99.90;;;;;;4970836;28;20268;-41
2021/01/30 05:22:38;;;;;;;3.85;3.55;;;7.10;99.90;;;;;;4981340;28;20226;-45
2021/01/30 05:25:13;;;;;;;4.05;2.85;;;7.10;99.90;;;;;;4984018;28;20207;-40
2021/01/30 05:28:19;;;;;;;4.65;4.20;;;7.10;99.90;;;;;;4963705;28;20229;-44
2021/01/30 05:31:01;;;;;;;5.88;5.38;;;7.10;99.90;;;;;;4975347;28;20333;-41
2021/01/30 05:34:03;;;;;;;4.93;4.50;;;7.00;99.90;;;;;;4971411;28;20288;-43
2021/01/30 05:36:40;;;;;;;6.10;5.55;;;7.10;99.90;;;;;;4964007;28;20223;-41
2021/01/30 05:39:45;;;;;;;7.75;7.05;;;7.20;99.90;;;;;;4964426;28;20304;-40
2021/01/30 05:42:23;;;;;;;6.07;5.47;;;7.10;99.90;;;;;;4973484;28;20238;-41
2021/01/30 05:45:03;;;;;;;7.93;6.45;;;7.10;99.90;;;;;;4973438;28;20281;-40
2021/01/30 05:47:33;;;;;;;4.97;4.57;;;7.10;99.90;;;;;;4973692;28;20283;-37
2021/01/30 05:50:13;;;;;;;11.45;10.32;;;7.00;99.90;;;;;;4983378;28;20220;-38
2021/01/30 05:52:43;;;;;;;9.63;7.70;;;6.90;99.90;;;;;;4966956;28;20267;-39
2021/01/30 05:55:28;;;;;;;4.28;3.97;;;6.90;99.90;;;;;;4981209;28;20197;-38
2021/01/30 05:58:00;;;;;;;4.18;3.83;;;6.90;99.90;;;;;;4979279;28;20208;-39
2021/01/30 06:00:31;;;;;;;5.05;4.65;;;6.80;99.90;;;;;;4979483;28;20658;-39
2021/01/30 06:03:10;;;;;;;4.05;3.70;;;6.80;99.90;;;;;;4975017;28;20555;-39
2021/01/30 06:05:42;;;;;;;140.40;102.25;;;6.80;99.90;;;;;;4979131;28;20204;-40
2021/01/30 06:08:16;;;;;;;15.13;13.07;;;6.80;99.90;;;;;;4974052;28;20241;-40
2021/01/30 06:10:48;;;;;;;8.48;7.75;;;6.70;99.90;;;;;;4981871;28;20204;-40
2021/01/30 06:13:22;;;;;;;11.90;10.90;;;6.70;99.90;;;;;;4985619;28;20343;-40
2021/01/30 06:15:56;;;;;;;13.52;12.25;;;6.80;99.90;;;;;;4980113;28;20212;-40
2021/01/30 06:18:30;;;;;;;3.83;3.05;;;6.70;99.90;;;;;;4986290;28;20223;-41
2021/01/30 06:21:04;;;;;;;17.88;16.55;;;6.80;99.90;;;;;;4983541;28;20195;-40
2021/01/30 06:23:35;;;;;;;5.72;5.22;;;6.80;99.90;;;;;;4986601;28;20205;-39
2021/01/30 06:26:17;;;;;;;6.80;6.20;;;6.80;99.90;;;;;;4981644;28;20208;-39
2021/01/30 06:28:57;;;;;;;12.90;11.85;;;6.70;99.90;;;;;;4972372;28;20225;-40
2021/01/30 06:31:31;;;;;;;6.65;5.05;;;6.60;99.90;;;;;;4983439;28;20219;-40
2021/01/30 06:34:17;;;;;;;12.23;11.02;;;6.70;99.90;;;;;;4985331;28;20227;-40
2021/01/30 06:36:50;;;;;;;10.90;9.85;;;6.70;99.90;;;;;;4985083;28;20295;-40
2021/01/30 06:39:27;;;;;;;9.25;8.15;;;6.70;99.90;;;;;;4978417;28;20205;-40
2021/01/30 06:42:02;;;;;;;6.50;5.88;;;6.70;99.90;;;;;;4976733;28;20220;-40
2021/01/30 06:44:32;;;;;;;4.50;4.10;;;6.80;99.90;;;;;;4975469;28;20580;-40
2021/01/30 06:47:13;;;;;;;11.20;10.18;;;6.80;99.90;;;;;;4978548;28;20204;-40
2021/01/30 06:49:46;;;;;;;11.10;9.80;;;6.80;99.90;;;;;;4986369;28;20209;-40
2021/01/30 06:52:23;;;;;;;7.80;5.50;;;6.70;99.90;;;;;;4971972;28;20201;-40
2021/01/30 06:55:12;;;;;;;5.18;4.68;;;6.70;99.90;;;;;;4986118;28;20205;-40
2021/01/30 06:57:49;;;;;;;5.78;5.05;;;6.80;99.90;;;;;;4984360;28;20259;-39
2021/01/30 07:00:30;;;;;;;9.18;7.80;;;6.70;99.90;;;;;;4977847;28;20247;-40
2021/01/30 07:03:23;;;;;;;12.93;11.63;;;6.70;99.90;;;;;;4984128;28;20216;-38
2021/01/30 07:06:03;;;;;;;3.15;2.65;;;6.70;99.90;;;;;;4972913;28;20209;-40
2021/01/30 07:08:45;;;;;;;4.88;4.47;;;6.70;99.90;;;;;;4985982;28;20600;-40
2021/01/30 07:11:51;;;;;;;14.25;12.95;;;6.70;99.90;;;;;;4982783;28;20398;-40
2021/01/30 07:14:33;;;;;;;4.95;3.88;;;6.70;99.90;;;;;;4968376;28;20258;-41
2021/01/30 07:17:08;;;;;;;3.08;2.63;;;6.60;99.90;;;;;;4984679;28;20274;-38
2021/01/30 07:19:51;;;;;;;22.63;19.88;;;6.70;99.90;;;;;;4985302;28;20276;-39
2021/01/30 07:22:26;;;;;;;11.05;9.93;;;6.70;99.90;;;;;;4972525;28;20263;-38
2021/01/30 07:25:04;;;;;;;15.20;13.70;;;6.70;99.90;;;;;;4978894;28;20204;-37
2021/01/30 07:27:40;;;;;;;14.05;12.65;;;6.60;99.90;;;;;;4979838;28;20593;-39
2021/01/30 07:30:16;;;;;;;4.35;3.85;;;6.70;99.90;;;;;;4973824;28;20282;-38
2021/01/30 07:32:53;;;;;;;6.90;6.30;;;6.70;99.90;;;;;;4979404;28;20205;-38
2021/01/30 07:35:27;;;;;;;8.40;7.60;;;6.70;99.90;;;;;;4977633;28;20209;-38
2021/01/30 07:38:03;;;;;;;15.48;14.15;;;6.70;99.90;;;;;;4985253;28;20222;-38
2021/01/30 07:40:42;;;;;;;3.72;3.40;;;6.60;99.90;;;;;;4978588;28;20204;-37
2021/01/30 07:43:17;;;;;;;6.72;6.05;;;6.60;99.90;;;;;;4985553;28;20274;-38
2021/01/30 07:45:53;;;;;;;4.13;3.83;;;6.60;99.90;;;;;;4975357;28;20224;-37
2021/01/30 07:48:27;;;;;;;7.63;6.95;;;6.60;99.90;;;;;;4984796;28;20228;-38
2021/01/30 07:51:05;;;;;;;6.05;5.50;;;6.50;99.90;;;;;;4970287;28;20224;-38
2021/01/30 07:53:35;;;;;;;3.80;3.40;;;6.50;99.90;;;;;;4978275;28;20220;-38
2021/01/30 07:56:15;;;;;;;3.70;3.40;;;6.60;99.90;;;;;;4983623;28;20208;-37
2021/01/30 07:59:07;;;;;;;3.20;3.00;;;6.60;99.90;;;;;;4984839;28;20304;-38
2021/01/30 08:01:49;;;;;;;3.53;3.20;;;6.50;99.90;;;;;;4979435;28;20200;-38
2021/01/30 08:04:40;;;;;;;3.72;3.10;;;6.50;99.90;;;;;;4977544;28;20205;-38
2021/01/30 08:07:20;;;;;;;3.40;3.10;;;6.50;99.90;;;;;;4975020;28;20209;-37
2021/01/30 08:09:58;;;;;;;3.60;3.15;;;6.60;99.90;;;;;;4980472;28;20213;-38
2021/01/30 08:12:44;;;;;;;3.78;3.47;;;6.60;99.90;;;;;;4980363;28;20232;-38
2021/01/30 08:15:21;;;;;;;3.60;3.40;;;6.50;99.90;;;;;;4984884;28;20272;-38
2021/01/30 08:18:04;;;;;;;3.28;2.97;;;6.50;99.90;;;;;;4984025;28;20275;-38
2021/01/30 08:20:41;;;;;;;5.45;3.05;;;6.60;99.90;;;;;;4984931;28;20267;-38
2021/01/30 08:23:32;;;;;;;2.50;2.30;;;6.60;99.90;;;;;;4980891;28;20216;-37
2021/01/30 08:26:08;;;;;;;2.35;2.15;;;6.60;99.90;;;;;;4975438;28;20211;-39
2021/01/30 08:28:42;;;;;;;3.08;2.78;;;6.50;99.90;;;;;;4984755;28;20232;-39
2021/01/30 08:31:33;;;;;;;2.22;2.03;;;6.50;99.90;;;;;;4983315;28;20245;-38
2021/01/30 08:34:06;;;;;;;3.80;1.95;;;6.50;99.90;;;;;;4984131;28;20244;-38
2021/01/30 08:36:39;;;;;;;3.22;1.80;;;6.60;99.90;;;;;;4983696;28;20208;-38
2021/01/30 08:39:26;;;;;;;2.20;2.00;;;6.60;99.90;;;;;;4984765;28;20208;-38
2021/01/30 08:42:01;;;;;;;1.88;1.77;;;6.50;99.90;;;;;;4968587;28;20238;-38
2021/01/30 08:44:52;;;;;;;2.50;2.30;;;6.60;99.90;;;;;;4979127;28;20208;-38
2021/01/30 08:47:25;;;;;;;4.13;2.10;;;6.60;99.90;;;;;;4977413;28;20271;-37
2021/01/30 08:50:02;;;;;;;2.65;2.45;;;6.60;99.90;;;;;;4984376;28;20214;-38
2021/01/30 08:52:44;;;;;;;2.78;2.47;;;6.70;99.90;;;;;;4978917;28;20212;-37
2021/01/30 08:55:36;;;;;;;2.65;2.10;;;6.70;99.90;;;;;;4966633;28;20558;-38
2021/01/30 08:58:06;;;;;;;2.78;2.40;;;6.70;99.90;;;;;;4980504;28;20217;-38
2021/01/30 09:00:51;;;;;;;3.05;2.75;;;6.70;99.90;;;;;;4971990;28;20216;-39
2021/01/30 09:03:48;;;;;;;3.13;2.80;;;6.70;99.90;;;;;;4983018;28;20205;-38
2021/01/30 09:06:57;;;;;;;3.10;2.80;;;6.70;99.90;;;;;;4959846;28;20747;-39
2021/01/30 09:09:28;;;;;;;3.25;2.95;;;6.70;99.90;;;;;;4982422;28;20287;-39
2021/01/30 09:12:02;;;;;;;2.90;2.70;;;6.70;99.90;;;;;;4981718;28;20240;-38
2021/01/30 09:14:40;;;;;;;2.67;2.42;;;6.80;99.90;;;;;;4971564;28;20212;-39
2021/01/30 09:17:45;;;;;;;2.60;2.40;;;6.80;99.90;;;;;;4983336;28;20217;-39
2021/01/30 09:20:25;;;;;;;2.47;2.28;;;6.70;99.90;;;;;;4977954;28;20216;-39
2021/01/30 09:23:20;;;;;;;2.55;2.35;;;6.70;99.90;;;;;;4976235;28;20238;-39
2021/01/30 09:25:58;;;;;;;2.00;1.90;;;6.70;99.90;;;;;;4982641;28;20212;-38
2021/01/30 09:28:32;;;;;;;1.70;1.60;;;6.70;99.90;;;;;;4979713;28;20240;-38
2021/01/30 09:31:05;;;;;;;1.67;1.58;;;6.70;99.90;;;;;;4978710;28;20208;-39
2021/01/30 09:33:38;;;;;;;2.40;1.67;;;6.70;99.90;;;;;;4972058;28;20209;-39
2021/01/30 09:36:15;;;;;;;2.45;2.35;;;6.80;99.90;;;;;;4974981;28;20197;-38
2021/01/30 09:38:47;;;;;;;3.30;3.00;;;6.70;99.90;;;;;;4983326;28;20236;-38
2021/01/30 09:41:24;;;;;;;2.60;2.40;;;6.70;99.90;;;;;;4976164;28;20251;-38
2021/01/30 09:44:06;;;;;;;2.83;2.60;;;6.60;99.90;;;;;;4983211;28;20221;-38
2021/01/30 09:46:39;;;;;;;2.95;2.75;;;6.60;99.90;;;;;;4982940;28;20267;-39
2021/01/30 09:49:15;;;;;;;3.25;2.88;;;6.60;99.90;;;;;;4982703;28;20252;-38
2021/01/30 09:51:45;;;;;;;3.85;3.55;;;6.60;99.90;;;;;;4981768;28;20430;-38
2021/01/30 09:54:17;;;;;;;5.68;3.55;;;6.50;99.90;;;;;;4983653;28;20259;-37
2021/01/30 09:56:49;;;;;;;3.97;3.45;;;6.50;99.90;;;;;;4982770;28;20207;-38
2021/01/30 09:59:26;;;;;;;3.78;3.50;;;6.50;99.90;;;;;;4976767;28;20343;-38
2021/01/30 10:02:10;;;;;;;3.45;3.20;;;6.40;99.90;;;;;;4981202;28;21008;-39
2021/01/30 10:04:41;;;;;;;4.05;3.65;;;6.40;99.90;;;;;;4978261;28;20227;-38
2021/01/30 10:07:13;;;;;;;4.25;3.95;;;6.40;99.90;;;;;;4982057;28;20212;-39
2021/01/30 10:09:44;;;;;;;3.60;3.30;;;6.40;99.90;;;;;;4981262;28;20229;-38
2021/01/30 10:12:35;;;;;;;3.97;3.65;;;6.40;99.90;;;;;;4973842;28;20309;-38
2021/01/30 10:15:08;;;;;;;3.72;3.42;;;6.40;99.90;;;;;;4981913;28;20204;-38
2021/01/30 10:17:42;;;;;;;2.50;2.30;;;6.50;99.90;;;;;;4982343;28;20215;-38
2021/01/30 10:20:16;;;;;;;2.28;2.08;;;6.50;99.90;;;;;;4973234;28;20259;-38
2021/01/30 10:22:48;;;;;;;3.20;2.53;;;6.50;99.90;;;;;;4981470;28;20193;-39
2021/01/30 10:25:22;;;;;;;1.95;1.80;;;6.50;99.90;;;;;;4983261;28;20209;-39
2021/01/30 10:28:02;;;;;;;1.90;1.70;;;6.60;99.90;;;;;;4981467;28;20204;-38
2021/01/30 10:30:34;;;;;;;1.88;1.70;;;6.60;99.90;;;;;;4982164;28;20207;-39
2021/01/30 10:33:08;;;;;;;3.13;2.05;;;6.60;99.90;;;;;;4974392;28;20212;-38
2021/01/30 10:35:46;;;;;;;2.45;2.25;;;6.60;99.90;;;;;;4975851;28;20204;-38
2021/01/30 10:38:21;;;;;;;2.42;2.20;;;6.60;99.90;;;;;;4968370;28;20215;-39
2021/01/30 10:40:58;;;;;;;2.88;2.63;;;6.60;99.90;;;;;;4982615;28;20220;-39
2021/01/30 10:43:31;;;;;;;4.55;3.20;;;6.60;99.90;;;;;;4982952;28;20597;-39
2021/01/30 10:46:06;;;;;;;3.50;3.10;;;6.60;99.90;;;;;;4982259;28;20209;-38
2021/01/30 10:48:38;;;;;;;3.50;3.17;;;6.60;99.90;;;;;;4982376;28;20251;-39
2021/01/30 10:51:11;;;;;;;3.10;2.80;;;6.60;99.90;;;;;;4978003;28;20233;-39
2021/01/30 10:53:43;;;;;;;3.13;2.90;;;6.60;99.90;;;;;;4973330;28;20209;-38
2021/01/30 10:56:22;;;;;;;4.45;4.15;;;6.60;99.90;;;;;;4969162;28;20216;-39
2021/01/30 10:58:54;;;;;;;4.50;3.10;;;6.50;99.90;;;;;;4981060;28;20205;-39
2021/01/30 11:01:32;;;;;;;3.35;3.03;;;6.60;99.90;;;;;;4975283;28;20264;-39
2021/01/30 11:04:06;;;;;;;3.60;2.67;;;6.70;99.90;;;;;;4975873;28;20204;-38
2021/01/30 11:06:46;;;;;;;4.70;2.50;;;6.60;99.90;;;;;;4985752;28;20205;-39
2021/01/30 11:09:26;;;;;;;2.78;2.55;;;6.50;99.90;;;;;;4984838;28;20255;-39
2021/01/30 11:12:11;;;;;;;2.45;2.25;;;6.50;99.90;;;;;;4972946;28;20232;-39
2021/01/30 11:14:42;;;;;;;3.03;2.53;;;6.60;99.90;;;;;;4976067;28;20201;-39
2021/01/30 11:17:25;;;;;;;2.70;2.50;;;6.60;99.90;;;;;;4984623;28;20209;-39
2021/01/30 11:19:55;;;;;;;2.60;2.40;;;6.60;99.90;;;;;;4984229;28;20326;-39
2021/01/30 11:22:27;;;;;;;2.67;2.47;;;6.60;99.90;;;;;;4977124;28;20201;-39
2021/01/30 11:25:10;;;;;;;2.05;1.85;;;6.60;99.90;;;;;;4997065;28;20208;-39
2021/01/30 11:27:45;;;;;;;1.92;1.73;;;6.70;99.90;;;;;;4975423;28;20201;-39
2021/01/30 11:30:19;;;;;;;2.33;2.22;;;6.70;99.90;;;;;;4991885;28;20672;-39
2021/01/30 11:33:05;;;;;;;2.20;2.10;;;6.70;99.90;;;;;;4982801;28;20204;-39
2021/01/30 11:35:37;;;;;;;3.30;2.20;;;6.60;99.90;;;;;;4973874;28;20209;-39
2021/01/30 11:38:08;;;;;;;3.35;2.55;;;6.60;99.90;;;;;;4967447;28;20201;-40
2021/01/30 11:40:38;;;;;;;3.28;2.97;;;6.60;99.90;;;;;;4977099;28;20228;-39
2021/01/30 11:43:09;;;;;;;3.00;2.70;;;6.50;99.90;;;;;;4986294;28;20211;-39
2021/01/30 11:45:39;;;;;;;2.88;2.67;;;6.50;99.90;;;;;;4988366;28;20264;-39
2021/01/30 11:48:11;;;;;;;3.05;2.85;;;6.50;99.90;;;;;;4984902;28;20204;-39
2021/01/30 11:50:43;;;;;;;3.35;2.50;;;6.50;99.90;;;;;;4981742;28;20208;-39
2021/01/30 11:53:14;;;;;;;2.60;2.40;;;6.60;99.90;;;;;;4986024;28;20200;-39
2021/01/30 11:55:45;;;;;;;2.55;2.35;;;6.60;99.90;;;;;;4977887;28;20220;-39
2021/01/30 11:58:16;;;;;;;2.45;2.25;;;6.50;99.90;;;;;;4975540;28;20200;-39
2021/01/30 12:00:47;;;;;;;2.35;2.15;;;6.50;99.90;;;;;;4978093;28;20204;-39
2021/01/30 12:03:25;;;;;;;2.30;2.10;;;6.50;99.90;;;;;;4973678;28;20227;-39
2021/01/30 12:05:56;;;;;;;1.77;1.67;;;6.50;99.90;;;;;;4973162;28;20217;-39
2021/01/30 12:08:26;;;;;;;2.28;2.13;;;6.50;99.90;;;;;;4966352;28;20217;-39
2021/01/30 12:10:57;;;;;;;2.00;1.83;;;6.40;99.90;;;;;;4972589;28;20632;-39
2021/01/30 12:13:28;;;;;;;1.95;1.85;;;6.50;99.90;;;;;;4975285;28;20234;-39
2021/01/30 12:15:58;;;;;;;2.08;1.92;;;6.50;99.90;;;;;;4974909;28;20227;-39
2021/01/30 12:18:30;;;;;;;2.55;2.00;;;6.60;99.90;;;;;;4980458;28;20652;-39
2021/01/30 12:21:00;;;;;;;1.80;1.70;;;6.60;99.90;;;;;;4978315;28;20207;-39
2021/01/30 12:23:30;;;;;;;2.15;2.00;;;6.60;99.90;;;;;;4974285;28;20197;-37
2021/01/30 12:26:01;;;;;;;1.50;1.40;;;6.60;99.90;;;;;;4982753;28;20232;-39
2021/01/30 12:28:33;;;;;;;2.35;1.73;;;6.60;99.90;;;;;;4983104;28;20282;-39
2021/01/30 12:31:05;;;;;;;1.75;1.60;;;6.60;99.90;;;;;;4981307;28;20231;-39
2021/01/30 12:33:36;;;;;;;2.05;1.48;;;6.60;99.90;;;;;;4984389;28;20267;-39
2021/01/30 12:36:07;;;;;;;2.40;1.58;;;6.70;99.90;;;;;;4980510;28;20213;-39
2021/01/30 12:38:37;;;;;;;1.63;1.40;;;6.70;99.90;;;;;;4984839;28;20209;-39
2021/01/30 12:41:08;;;;;;;1.70;1.60;;;6.80;99.90;;;;;;4981810;28;20212;-39
2021/01/30 12:43:38;;;;;;;2.08;1.88;;;6.70;99.90;;;;;;4984349;28;20259;-40
2021/01/30 12:46:08;;;;;;;2.67;1.95;;;6.70;99.90;;;;;;4984092;28;20235;-39
2021/01/30 12:48:40;;;;;;;2.08;1.80;;;6.70;99.90;;;;;;4983962;28;20263;-40
2021/01/30 12:51:10;;;;;;;2.17;1.70;;;6.70;99.90;;;;;;4983623;28;20283;-39
2021/01/30 12:53:40;;;;;;;1.42;1.33;;;6.70;99.90;;;;;;4984423;28;20200;-39
2021/01/30 12:56:10;;;;;;;1.50;1.40;;;6.70;99.90;;;;;;4981809;28;20259;-39
2021/01/30 12:58:40;;;;;;;1.85;1.52;;;6.70;99.90;;;;;;4977317;28;20208;-39
2021/01/30 13:01:10;;;;;;;1.80;1.70;;;6.80;99.90;;;;;;4966834;28;20594;-39
2021/01/30 13:03:41;;;;;;;1.40;1.30;;;6.70;99.90;;;;;;4983559;28;20268;-39
2021/01/30 13:06:11;;;;;;;1.40;1.15;;;6.70;99.90;;;;;;4984009;28;20252;-39
2021/01/30 13:08:41;;;;;;;1.83;1.65;;;6.80;99.90;;;;;;4977394;28;20229;-38
2021/01/30 13:11:11;;;;;;;2.25;1.38;;;6.80;99.90;;;;;;4973391;28;20200;-38
2021/01/30 13:14:00;;;;;;;1.23;1.23;;;6.80;99.90;;;;;;4981764;28;20232;-38
2021/01/30 13:16:31;;;;;;;1.50;1.40;;;6.70;99.90;;;;;;4976732;28;20228;-38
2021/01/30 13:19:03;;;;;;;1.65;1.48;;;6.80;99.90;;;;;;4984148;28;20223;-38
2021/01/30 13:21:33;;;;;;;1.50;1.40;;;6.80;99.90;;;;;;4976366;28;20197;-39
2021/01/30 13:24:03;;;;;;;1.85;1.50;;;6.80;99.90;;;;;;4984081;28;20283;-38
2021/01/30 13:26:39;;;;;;;1.88;1.67;;;6.70;99.90;;;;;;4982412;28;20228;-38
2021/01/30 13:29:09;;;;;;;1.50;1.15;;;6.70;99.90;;;;;;4982574;28;20334;-38
2021/01/30 13:31:43;;;;;;;1.20;1.05;;;6.70;99.90;;;;;;4982059;28;20212;-39
2021/01/30 13:34:14;;;;;;;2.35;1.20;;;6.70;99.90;;;;;;4973398;28;20274;-38
2021/01/30 13:36:45;;;;;;;0.80;0.80;;;6.60;99.90;;;;;;4976654;28;20213;-40
2021/01/30 13:39:15;;;;;;;0.90;0.90;;;6.60;99.90;;;;;;4982530;28;20234;-40